createdAt,value
2019-03-17T00:02:09.347Z,10.50
2019-03-17T00:04:37.059Z,10.60
2019-03-17T00:07:04.864Z,10.60
2019-03-17T00:09:32.500Z,10.60
2019-03-17T00:12:00.224Z,10.60
2019-03-17T00:14:27.958Z,10.60
2019-03-17T00:16:55.729Z,10.60
2019-03-17T00:19:23.428Z,10.60
2019-03-17T00:21:51.221Z,10.60
2019-03-17T00:24:19.434Z,10.60
2019-03-17T00:26:47.176Z,10.60
2019-03-17T00:29:15.030Z,10.60
2019-03-17T00:31:42.788Z,10.60
2019-03-17T00:34:10.521Z,10.60
2019-03-17T00:36:38.281Z,10.70
2019-03-17T00:39:06.344Z,10.60
2019-03-17T00:41:34.058Z,10.60
2019-03-17T00:44:01.765Z,10.60
2019-03-17T00:46:31.692Z,10.60
2019-03-17T00:48:59.387Z,10.60
2019-03-17T00:51:26.971Z,10.60
2019-03-17T00:53:55.549Z,10.60
2019-03-17T00:56:23.391Z,10.60
2019-03-17T00:58:51.027Z,10.60
2019-03-17T01:01:18.822Z,10.60
2019-03-17T01:03:46.604Z,10.50
2019-03-17T01:06:14.306Z,10.50
2019-03-17T01:08:41.859Z,10.50
2019-03-17T01:11:09.688Z,10.40
2019-03-17T01:13:40.591Z,10.40
2019-03-17T01:16:08.410Z,10.40
2019-03-17T01:18:36.099Z,10.30
2019-03-17T01:21:03.839Z,10.30
2019-03-17T01:23:31.567Z,10.20
2019-03-17T01:25:59.247Z,10.20
2019-03-17T01:28:26.924Z,10.10
2019-03-17T01:30:54.687Z,10.10
2019-03-17T01:33:23.527Z,10.00
2019-03-17T01:35:51.149Z,10.00
2019-03-17T01:38:19.483Z,10.10
2019-03-17T01:40:47.285Z,10.10
2019-03-17T01:43:15.142Z,10.20
2019-03-17T01:45:42.892Z,10.20
2019-03-17T01:48:11.971Z,10.20
2019-03-17T01:50:39.602Z,10.30
2019-03-17T01:53:07.617Z,10.30
2019-03-17T01:55:35.311Z,10.40
2019-03-17T01:58:03.155Z,10.50
2019-03-17T02:00:30.910Z,10.50
2019-03-17T02:02:58.649Z,10.50
2019-03-17T02:05:26.341Z,10.50
2019-03-17T02:07:54.124Z,10.70
2019-03-17T02:10:21.676Z,10.60
2019-03-17T02:12:49.296Z,10.60
2019-03-17T02:15:17.411Z,10.60
2019-03-17T02:17:45.031Z,10.70
2019-03-17T02:20:12.704Z,10.60
2019-03-17T02:22:40.454Z,10.50
2019-03-17T02:25:09.176Z,10.50
2019-03-17T02:27:41.407Z,10.50
2019-03-17T02:30:09.621Z,10.50
2019-03-17T02:32:37.250Z,10.40
2019-03-17T02:35:05.215Z,10.40
2019-03-17T02:37:32.931Z,10.30
2019-03-17T02:40:00.690Z,10.30
2019-03-17T02:42:28.609Z,10.30
2019-03-17T02:44:56.284Z,10.40
2019-03-17T02:47:25.403Z,10.30
2019-03-17T02:49:53.095Z,10.30
2019-03-17T02:52:20.733Z,10.30
2019-03-17T02:54:48.506Z,10.20
2019-03-17T02:57:16.321Z,10.30
2019-03-17T02:59:44.030Z,10.20
2019-03-17T03:02:11.751Z,10.20
2019-03-17T03:04:39.611Z,10.20
2019-03-17T03:07:07.287Z,10.20
2019-03-17T03:09:34.924Z,10.20
2019-03-17T03:12:02.810Z,10.20
2019-03-17T03:14:30.464Z,10.10
2019-03-17T03:16:58.229Z,10.10
2019-03-17T03:19:26.155Z,10.10
2019-03-17T03:21:53.867Z,10.10
2019-03-17T03:24:21.634Z,10.10
2019-03-17T03:26:49.426Z,10.10
2019-03-17T03:29:17.060Z,10.00
2019-03-17T03:31:44.858Z,10.00
2019-03-17T03:34:12.687Z,10.10
2019-03-17T03:36:40.544Z,10.10
2019-03-17T03:39:08.290Z,10.00
2019-03-17T03:41:36.072Z,10.10
2019-03-17T03:44:04.201Z,10.10
2019-03-17T03:46:32.033Z,10.10
2019-03-17T03:48:59.885Z,10.10
2019-03-17T03:51:27.722Z,10.10
2019-03-17T03:53:55.334Z,10.10
2019-03-17T03:56:23.068Z,10.20
2019-03-17T03:58:50.887Z,10.20
2019-03-17T04:01:18.555Z,10.20
2019-03-17T04:03:46.187Z,10.20
2019-03-17T04:06:25.859Z,10.30
2019-03-17T04:08:43.739Z,10.30
2019-03-17T04:11:11.519Z,10.30
2019-03-17T04:13:39.059Z,10.20
2019-03-17T04:16:06.755Z,10.20
2019-03-17T04:18:34.571Z,10.20
2019-03-17T04:21:03.443Z,10.20
2019-03-17T04:23:32.780Z,10.20
2019-03-17T04:26:00.497Z,10.10
2019-03-17T04:28:28.097Z,10.10
2019-03-17T04:30:55.687Z,10.10
2019-03-17T04:33:23.395Z,10.10
2019-03-17T04:35:54.382Z,10.10
2019-03-17T04:38:21.978Z,10.10
2019-03-17T04:40:49.673Z,10.10
2019-03-17T04:43:17.426Z,10.10
2019-03-17T04:45:45.057Z,10.20
2019-03-17T04:48:12.876Z,10.10
2019-03-17T04:50:41.577Z,10.10
2019-03-17T04:53:09.301Z,10.10
2019-03-17T04:55:37.053Z,10.10
2019-03-17T04:58:04.735Z,10.20
2019-03-17T05:00:32.600Z,10.20
2019-03-17T05:03:00.231Z,10.20
2019-03-17T05:05:27.955Z,10.20
2019-03-17T05:07:55.586Z,10.10
2019-03-17T05:10:23.392Z,10.10
2019-03-17T05:12:50.998Z,10.20
2019-03-17T05:15:18.746Z,10.20
2019-03-17T05:17:46.564Z,10.20
2019-03-17T05:20:14.215Z,10.20
2019-03-17T05:22:41.886Z,10.20
2019-03-17T05:25:09.608Z,10.10
2019-03-17T05:27:40.347Z,10.20
2019-03-17T05:30:08.203Z,10.20
2019-03-17T05:32:35.921Z,10.10
2019-03-17T05:35:04.102Z,10.10
2019-03-17T05:37:32.279Z,10.10
2019-03-17T05:39:59.998Z,10.00
2019-03-17T05:42:28.946Z,10.00
2019-03-17T05:44:56.591Z,10.10
2019-03-17T05:47:24.252Z,10.10
2019-03-17T05:49:55.027Z,10.10
2019-03-17T05:52:22.816Z,10.10
2019-03-17T05:54:50.581Z,10.10
2019-03-17T05:57:18.385Z,10.20
2019-03-17T05:59:47.033Z,10.30
2019-03-17T06:02:14.762Z,10.30
2019-03-17T06:04:42.570Z,10.30
2019-03-17T06:07:18.570Z,10.30
2019-03-17T06:09:39.880Z,10.40
2019-03-17T06:12:07.567Z,10.30
2019-03-17T06:14:35.179Z,10.40
2019-03-17T06:17:02.875Z,10.40
2019-03-17T06:19:30.504Z,10.40
2019-03-17T06:22:00.396Z,10.40
2019-03-17T06:24:27.931Z,10.50
2019-03-17T06:26:55.776Z,10.50
2019-03-17T06:29:23.592Z,10.50
2019-03-17T06:31:51.326Z,10.50
2019-03-17T06:34:19.488Z,10.60
2019-03-17T06:36:48.588Z,10.70
2019-03-17T06:39:16.309Z,10.80
2019-03-17T06:41:43.996Z,10.80
2019-03-17T06:44:11.594Z,10.80
2019-03-17T06:46:39.503Z,10.80
2019-03-17T06:49:07.233Z,10.80
2019-03-17T06:51:35.235Z,10.60
2019-03-17T06:54:02.995Z,10.60
2019-03-17T06:56:30.795Z,10.70
2019-03-17T06:58:58.488Z,10.60
2019-03-17T07:01:26.297Z,10.80
2019-03-17T07:03:54.219Z,10.80
2019-03-17T07:06:21.904Z,10.70
2019-03-17T07:08:49.579Z,10.70
2019-03-17T07:11:17.429Z,10.60
2019-03-17T07:13:45.302Z,10.60
2019-03-17T07:16:12.927Z,10.70
2019-03-17T07:18:41.126Z,10.60
2019-03-17T07:21:08.969Z,10.70
2019-03-17T07:23:36.797Z,10.70
2019-03-17T07:26:04.605Z,10.70
2019-03-17T07:28:32.276Z,10.80
2019-03-17T07:30:59.998Z,10.70
2019-03-17T07:33:27.750Z,10.80
2019-03-17T07:35:55.620Z,10.90
2019-03-17T07:38:23.724Z,10.90
2019-03-17T07:40:51.672Z,11.00
2019-03-17T07:43:19.331Z,11.20
2019-03-17T07:45:46.998Z,11.40
2019-03-17T07:48:14.630Z,11.60
2019-03-17T07:50:42.286Z,11.60
2019-03-17T07:53:10.141Z,11.70
2019-03-17T07:55:39.137Z,11.80
2019-03-17T07:58:06.801Z,11.80
2019-03-17T08:00:34.724Z,11.70
2019-03-17T08:03:02.653Z,11.50
2019-03-17T08:05:30.548Z,11.40
2019-03-17T08:08:08.822Z,11.30
2019-03-17T08:10:28.335Z,11.30
2019-03-17T08:12:56.103Z,11.30
2019-03-17T08:15:23.864Z,11.20
2019-03-17T08:17:52.794Z,11.20
2019-03-17T08:20:20.618Z,11.20
2019-03-17T08:22:48.401Z,11.20
2019-03-17T08:25:16.275Z,11.40
2019-03-17T08:27:45.254Z,11.40
2019-03-17T08:30:13.196Z,11.50
2019-03-17T08:32:41.551Z,11.20
2019-03-17T08:35:09.980Z,11.50
2019-03-17T08:37:38.817Z,11.80
2019-03-17T08:40:09.840Z,11.80
2019-03-17T08:42:37.576Z,11.70
2019-03-17T08:45:06.633Z,11.80
2019-03-17T08:47:34.250Z,11.60
2019-03-17T08:50:01.940Z,11.80
2019-03-17T08:52:29.616Z,12.00
2019-03-17T08:54:57.608Z,11.80
2019-03-17T08:57:25.241Z,11.60
2019-03-17T08:59:53.063Z,11.60
2019-03-17T09:02:20.806Z,11.60
2019-03-17T09:04:48.447Z,11.30
2019-03-17T09:07:16.952Z,11.30
2019-03-17T09:09:45.811Z,11.20
2019-03-17T09:12:13.540Z,11.40
2019-03-17T09:14:41.241Z,11.50
2019-03-17T09:17:14.532Z,11.40
2019-03-17T09:19:39.955Z,11.40
2019-03-17T09:22:07.765Z,11.40
2019-03-17T09:24:35.471Z,11.50
2019-03-17T09:27:03.228Z,11.40
2019-03-17T09:29:30.879Z,11.30
2019-03-17T09:31:59.810Z,11.30
2019-03-17T09:34:27.529Z,11.40
2019-03-17T09:36:55.314Z,11.20
2019-03-17T09:39:23.111Z,11.10
2019-03-17T09:41:50.821Z,11.10
2019-03-17T09:44:19.879Z,11.20
2019-03-17T09:46:47.771Z,11.30
2019-03-17T09:49:15.430Z,11.40
2019-03-17T09:51:43.126Z,11.60
2019-03-17T09:54:10.792Z,11.60
2019-03-17T09:56:38.568Z,11.50
2019-03-17T09:59:06.510Z,11.70
2019-03-17T10:01:34.275Z,11.50
2019-03-17T10:04:03.191Z,11.60
2019-03-17T10:06:30.883Z,11.80
2019-03-17T10:09:00.346Z,11.90
2019-03-17T10:11:28.405Z,11.90
2019-03-17T10:13:56.086Z,11.80
2019-03-17T10:16:23.819Z,11.80
2019-03-17T10:18:51.519Z,11.90
2019-03-17T10:21:19.190Z,11.70
2019-03-17T10:23:46.917Z,11.80
2019-03-17T10:26:14.983Z,11.50
2019-03-17T10:28:42.732Z,11.50
2019-03-17T10:31:10.795Z,11.60
2019-03-17T10:33:39.046Z,11.50
2019-03-17T10:36:06.871Z,11.30
2019-03-17T10:38:34.628Z,11.20
2019-03-17T10:41:02.461Z,11.30
2019-03-17T10:43:31.096Z,11.30
2019-03-17T10:45:58.792Z,11.10
2019-03-17T10:48:26.939Z,11.10
2019-03-17T10:50:54.780Z,11.20
2019-03-17T10:53:22.545Z,11.00
2019-03-17T10:55:50.414Z,10.90
2019-03-17T10:58:18.297Z,11.00
2019-03-17T11:00:45.935Z,10.80
2019-03-17T11:03:13.714Z,10.60
2019-03-17T11:05:41.881Z,10.60
2019-03-17T11:08:09.684Z,10.60
2019-03-17T11:10:37.442Z,10.60
2019-03-17T11:13:05.164Z,10.50
2019-03-17T11:15:32.886Z,10.40
2019-03-17T11:18:00.617Z,10.20
2019-03-17T11:20:29.022Z,10.20
2019-03-17T11:22:56.691Z,10.10
2019-03-17T11:25:24.452Z,10.10
2019-03-17T11:27:52.229Z,10.10
2019-03-17T11:30:20.488Z,10.10
2019-03-17T11:32:48.285Z,10.00
2019-03-17T11:35:17.748Z,9.90
2019-03-17T11:37:45.923Z,9.90
2019-03-17T11:40:17.547Z,9.60
2019-03-17T11:42:45.612Z,9.50
2019-03-17T11:45:13.772Z,9.50
2019-03-17T11:47:42.259Z,9.40
2019-03-17T11:50:11.433Z,9.40
2019-03-17T11:52:39.603Z,9.30
2019-03-17T11:55:08.407Z,9.10
2019-03-17T11:57:36.351Z,9.00
2019-03-17T12:00:06.086Z,8.80
2019-03-17T12:02:40.779Z,8.80
2019-03-17T12:05:08.757Z,8.60
2019-03-17T12:07:36.654Z,8.50
2019-03-17T12:10:05.658Z,8.40
2019-03-17T12:12:33.415Z,8.30
2019-03-17T12:15:01.383Z,8.20
2019-03-17T12:17:29.215Z,8.10
2019-03-17T12:19:57.072Z,8.10
2019-03-17T12:22:24.957Z,8.00
2019-03-17T12:24:53.036Z,8.10
2019-03-17T12:27:21.218Z,8.10
2019-03-17T12:29:48.958Z,7.90
2019-03-17T12:32:17.193Z,7.80
2019-03-17T12:34:45.103Z,7.80
2019-03-17T12:37:12.966Z,7.80
2019-03-17T12:39:40.896Z,7.60
2019-03-17T12:42:08.791Z,7.60
2019-03-17T12:44:36.561Z,7.60
2019-03-17T12:47:04.438Z,7.50
2019-03-17T12:49:32.603Z,7.40
2019-03-17T12:52:00.471Z,7.20
2019-03-17T12:54:28.407Z,7.20
2019-03-17T12:56:56.538Z,7.10
2019-03-17T12:59:24.388Z,7.00
2019-03-17T13:01:52.327Z,6.90
2019-03-17T13:04:20.446Z,6.90
2019-03-17T13:06:48.349Z,6.80
2019-03-17T13:09:19.911Z,6.80
2019-03-17T13:11:47.682Z,6.90
2019-03-17T13:14:15.522Z,7.00
2019-03-17T13:16:43.763Z,7.00
2019-03-17T13:19:11.620Z,7.00
2019-03-17T13:21:39.465Z,6.90
2019-03-17T13:24:07.330Z,7.00
2019-03-17T13:26:35.147Z,6.90
2019-03-17T13:29:03.262Z,6.90
2019-03-17T13:31:31.065Z,7.00
2019-03-17T13:33:58.824Z,7.10
2019-03-17T13:36:27.066Z,7.20
2019-03-17T13:38:55.106Z,7.10
2019-03-17T13:41:22.876Z,7.00
2019-03-17T13:43:51.218Z,7.00
2019-03-17T13:46:19.714Z,7.10
2019-03-17T13:48:47.548Z,7.10
2019-03-17T13:51:15.263Z,7.10
2019-03-17T13:53:43.176Z,7.10
2019-03-17T13:56:11.049Z,7.00
2019-03-17T13:58:38.941Z,6.90
2019-03-17T14:01:06.995Z,7.00
2019-03-17T14:03:34.806Z,7.10
2019-03-17T14:06:02.716Z,7.20
2019-03-17T14:08:31.084Z,7.30
2019-03-17T14:11:01.023Z,7.40
2019-03-17T14:13:28.836Z,7.40
2019-03-17T14:15:56.942Z,7.30
2019-03-17T14:18:26.460Z,7.30
2019-03-17T14:20:54.332Z,7.40
2019-03-17T14:23:22.044Z,7.50
2019-03-17T14:25:50.097Z,7.60
2019-03-17T14:28:17.953Z,7.70
2019-03-17T14:30:45.835Z,7.70
2019-03-17T14:33:17.725Z,7.80
2019-03-17T14:35:45.483Z,8.00
2019-03-17T14:38:14.989Z,8.10
2019-03-17T14:40:52.848Z,8.20
2019-03-17T14:43:12.588Z,8.30
2019-03-17T14:45:40.766Z,8.40
2019-03-17T14:48:08.686Z,8.50
2019-03-17T14:50:36.858Z,8.50
2019-03-17T14:53:04.699Z,8.70
2019-03-17T14:55:32.516Z,8.80
2019-03-17T14:58:01.367Z,8.80
2019-03-17T15:00:29.412Z,9.00
2019-03-17T15:02:57.442Z,9.00
2019-03-17T15:05:25.610Z,9.00
2019-03-17T15:08:00.320Z,8.90
2019-03-17T15:10:28.265Z,8.90
2019-03-17T15:12:56.020Z,8.80
2019-03-17T15:15:24.737Z,8.90
2019-03-17T15:17:52.499Z,8.90
2019-03-17T15:20:20.873Z,8.90
2019-03-17T15:22:49.054Z,8.80
2019-03-17T15:25:17.801Z,8.80
2019-03-17T15:27:45.765Z,8.80
2019-03-17T15:30:19.900Z,8.60
2019-03-17T15:32:47.807Z,8.70
2019-03-17T15:35:15.792Z,8.70
2019-03-17T15:37:43.830Z,8.80
2019-03-17T15:40:11.846Z,8.80
2019-03-17T15:42:39.800Z,8.80
2019-03-17T15:45:24.815Z,8.80
2019-03-17T15:47:52.996Z,8.70
2019-03-17T15:50:20.883Z,8.60
2019-03-17T15:52:48.966Z,8.60
2019-03-17T15:55:17.824Z,8.60
2019-03-17T15:57:45.637Z,8.60
2019-03-17T16:00:24.798Z,8.50
2019-03-17T16:02:45.714Z,8.50
2019-03-17T16:05:13.819Z,8.60
2019-03-17T16:07:42.918Z,8.60
2019-03-17T16:10:12.891Z,8.60
2019-03-17T16:12:40.756Z,8.70
2019-03-17T16:15:09.782Z,8.70
2019-03-17T16:17:43.545Z,8.50
2019-03-17T16:20:13.368Z,8.40
2019-03-17T16:22:42.319Z,8.40
2019-03-17T16:25:10.467Z,8.40
2019-03-17T16:27:38.492Z,8.30
2019-03-17T16:30:09.774Z,8.30
2019-03-17T16:32:39.846Z,8.20
2019-03-17T16:35:07.763Z,8.20
2019-03-17T16:37:35.583Z,8.20
2019-03-17T16:40:04.266Z,8.10
2019-03-17T16:42:32.211Z,8.00
2019-03-17T16:44:59.914Z,7.70
2019-03-17T16:47:27.825Z,7.60
2019-03-17T16:49:55.618Z,7.50
2019-03-17T16:52:23.564Z,7.50
2019-03-17T16:54:51.503Z,7.50
2019-03-17T16:57:19.450Z,7.50
2019-03-17T16:59:47.564Z,7.40
2019-03-17T17:02:15.419Z,7.40
2019-03-17T17:04:43.328Z,7.40
2019-03-17T17:07:11.250Z,7.40
2019-03-17T17:09:40.220Z,7.40
2019-03-17T17:12:08.259Z,7.40
2019-03-17T17:14:36.134Z,7.40
2019-03-17T17:17:04.050Z,7.30
2019-03-17T17:19:31.981Z,7.30
2019-03-17T17:21:59.967Z,7.40
2019-03-17T17:24:27.858Z,7.40
2019-03-17T17:26:55.794Z,7.30
2019-03-17T17:29:23.731Z,7.30
2019-03-17T17:31:51.410Z,7.30
2019-03-17T17:34:19.191Z,7.10
2019-03-17T17:36:47.075Z,7.20
2019-03-17T17:39:14.864Z,7.20
2019-03-17T17:41:42.634Z,7.10
2019-03-17T17:44:10.425Z,7.10
2019-03-17T17:46:38.262Z,7.10
2019-03-17T17:49:06.037Z,7.10
2019-03-17T17:51:34.063Z,7.10
2019-03-17T17:54:01.820Z,7.10
2019-03-17T17:56:29.517Z,7.10
2019-03-17T17:58:57.387Z,7.10
2019-03-17T18:01:25.273Z,7.10
2019-03-17T18:03:53.003Z,7.10
2019-03-17T18:06:21.182Z,7.00
2019-03-17T18:08:49.042Z,7.00
2019-03-17T18:11:16.870Z,6.90
2019-03-17T18:13:44.841Z,6.90
2019-03-17T18:16:12.813Z,6.90
2019-03-17T18:18:40.771Z,6.80
2019-03-17T18:21:08.580Z,6.80
2019-03-17T18:23:36.830Z,6.70
2019-03-17T18:26:06.191Z,6.70
2019-03-17T18:28:34.115Z,6.60
2019-03-17T18:31:01.765Z,6.60
2019-03-17T18:33:29.722Z,6.70
2019-03-17T18:35:57.599Z,6.70
2019-03-17T18:38:25.407Z,6.70
2019-03-17T18:40:53.413Z,6.80
2019-03-17T18:43:21.204Z,6.70
2019-03-17T18:45:49.189Z,6.70
2019-03-17T18:48:16.908Z,6.70
2019-03-17T18:50:45.126Z,6.60
2019-03-17T18:53:12.933Z,6.70
2019-03-17T18:55:40.657Z,6.60
2019-03-17T18:58:08.653Z,6.50
2019-03-17T19:00:36.575Z,6.50
2019-03-17T19:03:04.290Z,6.50
2019-03-17T19:05:32.924Z,6.60
2019-03-17T19:08:00.898Z,6.50
2019-03-17T19:10:29.758Z,6.40
2019-03-17T19:12:57.570Z,6.50
2019-03-17T19:15:25.344Z,6.50
2019-03-17T19:17:53.079Z,6.40
2019-03-17T19:20:20.974Z,6.40
2019-03-17T19:22:49.058Z,6.40
2019-03-17T19:25:17.023Z,6.30
2019-03-17T19:27:45.068Z,6.20
2019-03-17T19:30:14.251Z,6.30
2019-03-17T19:32:41.973Z,6.30
2019-03-17T19:35:09.951Z,6.30
2019-03-17T19:37:37.801Z,6.40
2019-03-17T19:40:06.277Z,6.40
2019-03-17T19:42:36.509Z,6.30
2019-03-17T19:45:04.973Z,6.30
2019-03-17T19:47:32.662Z,6.20
2019-03-17T19:50:03.101Z,6.10
2019-03-17T19:52:31.568Z,6.10
2019-03-17T19:54:59.589Z,6.00
2019-03-17T19:57:27.920Z,6.00
2019-03-17T19:59:55.793Z,5.90
2019-03-17T20:02:23.669Z,5.90
2019-03-17T20:04:51.580Z,6.00
2019-03-17T20:07:19.330Z,6.10
2019-03-17T20:09:47.286Z,6.00
2019-03-17T20:12:15.476Z,6.00
2019-03-17T20:14:43.220Z,5.90
2019-03-17T20:17:10.958Z,5.90
2019-03-17T20:19:38.731Z,6.00
2019-03-17T20:22:06.480Z,5.90
2019-03-17T20:24:34.175Z,5.90
2019-03-17T20:27:04.286Z,5.90
2019-03-17T20:29:32.299Z,5.90
2019-03-17T20:31:59.981Z,5.90
2019-03-17T20:34:27.761Z,5.80
2019-03-17T20:36:55.549Z,5.80
2019-03-17T20:39:23.250Z,5.80
2019-03-17T20:41:51.298Z,5.80
2019-03-17T20:44:19.200Z,5.80
2019-03-17T20:46:47.002Z,5.70
2019-03-17T20:49:14.932Z,5.70
2019-03-17T20:51:42.693Z,5.70
2019-03-17T20:54:10.393Z,5.70
2019-03-17T20:56:38.193Z,5.70
2019-03-17T20:59:06.110Z,5.70
2019-03-17T21:01:33.836Z,5.70
2019-03-17T21:04:01.983Z,5.70
2019-03-17T21:06:29.849Z,5.70
2019-03-17T21:08:57.593Z,5.80
2019-03-17T21:11:28.264Z,5.80
2019-03-17T21:13:56.410Z,5.90
2019-03-17T21:16:24.355Z,5.90
2019-03-17T21:18:52.050Z,5.70
2019-03-17T21:21:19.906Z,5.70
2019-03-17T21:23:47.628Z,5.50
2019-03-17T21:26:15.336Z,5.40
2019-03-17T21:28:43.255Z,5.30
2019-03-17T21:31:11.028Z,5.30
2019-03-17T21:33:40.308Z,5.20
2019-03-17T21:36:08.223Z,5.20
2019-03-17T21:38:36.083Z,5.30
2019-03-17T21:41:07.350Z,5.30
2019-03-17T21:43:33.614Z,5.30
2019-03-17T21:46:01.281Z,5.30
2019-03-17T21:48:29.085Z,5.30
2019-03-17T21:50:56.819Z,5.20
2019-03-17T21:53:24.486Z,5.20
2019-03-17T21:55:54.184Z,5.20
2019-03-17T21:58:21.997Z,5.10
2019-03-17T22:00:49.677Z,5.00
2019-03-17T22:03:18.853Z,5.00
2019-03-17T22:05:46.653Z,5.00
2019-03-17T22:08:14.470Z,4.90
2019-03-17T22:10:42.551Z,4.90
2019-03-17T22:13:10.427Z,5.00
2019-03-17T22:15:38.072Z,5.00
2019-03-17T22:18:05.731Z,5.00
2019-03-17T22:20:33.423Z,5.00
2019-03-17T22:23:01.123Z,5.00
2019-03-17T22:25:29.107Z,5.00
2019-03-17T22:28:07.754Z,5.10
2019-03-17T22:30:26.608Z,5.10
2019-03-17T22:32:54.350Z,5.10
2019-03-17T22:35:22.290Z,5.10
2019-03-17T22:37:49.919Z,5.20
2019-03-17T22:40:17.815Z,5.10
2019-03-17T22:42:50.002Z,5.00
2019-03-17T22:45:17.891Z,4.90
2019-03-17T22:47:45.506Z,4.80
2019-03-17T22:50:13.500Z,4.80
2019-03-17T22:52:41.174Z,4.80
2019-03-17T22:55:10.804Z,4.70
2019-03-17T22:57:38.580Z,4.70
2019-03-17T23:00:08.785Z,4.70
2019-03-17T23:02:38.375Z,4.70
2019-03-17T23:05:06.245Z,4.60
2019-03-17T23:07:34.029Z,4.60
2019-03-17T23:10:01.916Z,4.70
2019-03-17T23:12:29.607Z,4.80
2019-03-17T23:14:57.197Z,4.80
2019-03-17T23:17:24.894Z,4.80
2019-03-17T23:19:52.531Z,4.80
2019-03-17T23:22:20.423Z,4.80
2019-03-17T23:24:48.658Z,4.70
2019-03-17T23:27:16.278Z,4.70
2019-03-17T23:29:44.010Z,4.70
2019-03-17T23:32:11.662Z,4.60
2019-03-17T23:34:39.437Z,4.60
2019-03-17T23:37:07.550Z,4.60
2019-03-17T23:39:35.338Z,4.60
2019-03-17T23:42:03.134Z,4.50
2019-03-17T23:44:30.886Z,4.50
2019-03-17T23:46:58.637Z,4.50
2019-03-17T23:49:26.407Z,4.50
2019-03-17T23:51:54.143Z,4.50
2019-03-17T23:54:21.789Z,4.60
2019-03-17T23:56:49.440Z,4.60
2019-03-17T23:59:17.140Z,4.60
